Time;durP1;ratioP1;P1;durP2;ratioP2;P2;SDS_P1;SDS_P2;PMS_P1;PMS_P2;Temp;Humidity;BMP_temperature;BMP_pressure;BME280_temperature;BME280_humidity;BME280_pressure;Samples;Min_cycle;Max_cycle;Signal;HPM_P1;HPM_P2
2023/01/22 04:01:34;;;;;;;;;;;;;;;;;;;;;
2023/01/22 04:04:00;;;;;;;2.75;1.90;;;11.00;51.10;;;;;;4896825;23;45403;-64
2023/01/22 04:06:26;;;;;;;3.00;2.15;;;11.00;51.00;;;;;;4867056;29;45628;-64
2023/01/22 04:08:55;;;;;;;3.10;2.10;;;11.00;51.00;;;;;;4884054;28;45572;-64
2023/01/22 04:11:21;;;;;;;2.65;1.90;;;11.00;51.00;;;;;;4884064;28;45724;-64
2023/01/22 04:13:47;;;;;;;3.25;1.90;;;11.10;51.00;;;;;;4886533;28;45707;-64
2023/01/22 04:16:13;;;;;;;2.70;1.83;;;11.00;51.00;;;;;;4869240;29;46117;-64
2023/01/22 04:18:38;;;;;;;3.22;1.90;;;11.00;51.00;;;;;;4868891;29;45793;-63
2023/01/22 04:21:04;;;;;;;2.53;2.08;;;11.00;51.00;;;;;;4872806;29;45074;-64
2023/01/22 04:23:30;;;;;;;3.33;2.45;;;11.00;51.00;;;;;;4872270;29;46424;-63
2023/01/22 04:25:56;;;;;;;3.75;2.38;;;11.00;51.00;;;;;;4871278;29;45494;-64
2023/01/22 04:28:21;;;;;;;3.10;2.03;;;11.00;51.00;;;;;;4858287;29;44765;-64
2023/01/22 04:30:48;;;;;;;2.80;2.10;;;11.00;51.00;;;;;;4887448;28;45398;-63
2023/01/22 04:33:14;;;;;;;2.42;1.80;;;11.00;51.00;;;;;;4886324;28;45640;-64
2023/01/22 04:35:39;;;;;;;2.85;2.00;;;11.00;51.00;;;;;;4871278;29;44718;-65
2023/01/22 04:38:05;;;;;;;3.03;2.08;;;11.00;51.00;;;;;;4858479;29;45901;-63
2023/01/22 04:40:31;;;;;;;2.25;1.67;;;11.00;51.00;;;;;;4885033;28;46852;-63
2023/01/22 04:43:03;;;;;;;2.67;1.85;;;11.00;51.00;;;;;;4872045;29;45923;-64
2023/01/22 04:45:29;;;;;;;3.65;2.22;;;11.00;51.00;;;;;;4873618;29;45388;-64
2023/01/22 04:47:54;;;;;;;2.95;1.90;;;11.00;51.00;;;;;;4871191;29;45598;-64
2023/01/22 04:50:22;;;;;;;2.92;2.20;;;11.00;51.00;;;;;;4871202;29;45676;-63
2023/01/22 04:52:49;;;;;;;2.88;2.00;;;11.00;51.10;;;;;;4885426;28;45229;-64
2023/01/22 04:55:15;;;;;;;3.75;2.20;;;11.00;51.10;;;;;;4871666;29;45494;-63
2023/01/22 04:57:40;;;;;;;3.40;2.13;;;11.00;51.00;;;;;;4886184;28;45474;-64
2023/01/22 05:00:07;;;;;;;2.40;1.70;;;11.00;51.00;;;;;;4857625;29;45768;-64
2023/01/22 05:02:32;;;;;;;2.90;2.10;;;11.00;51.00;;;;;;4873425;28;45305;-64
2023/01/22 05:04:58;;;;;;;3.47;2.08;;;11.00;51.00;;;;;;4890535;28;45522;-62
2023/01/22 05:07:23;;;;;;;3.17;2.08;;;10.90;51.00;;;;;;4904974;28;45822;-63
2023/01/22 05:09:49;;;;;;;3.40;2.25;;;11.00;51.10;;;;;;4904149;28;46500;-63
2023/01/22 05:12:14;;;;;;;3.35;2.38;;;11.00;51.00;;;;;;4889390;28;45313;-64
2023/01/22 05:14:40;;;;;;;2.95;2.20;;;10.90;51.00;;;;;;4890789;28;45698;-64
2023/01/22 05:17:05;;;;;;;3.15;2.05;;;10.90;51.00;;;;;;4889667;28;45480;-62
2023/01/22 05:19:31;;;;;;;4.82;2.17;;;11.00;51.10;;;;;;4890354;28;45581;-64
2023/01/22 05:21:56;;;;;;;3.25;2.10;;;11.00;51.10;;;;;;4898217;28;44713;-64
2023/01/22 05:24:22;;;;;;;2.70;1.83;;;10.90;51.00;;;;;;4890676;28;44747;-64
2023/01/22 05:26:47;;;;;;;2.67;1.98;;;10.90;51.00;;;;;;4891766;28;45668;-64
2023/01/22 05:29:13;;;;;;;3.42;1.98;;;11.00;51.10;;;;;;4890850;28;45516;-63
2023/01/22 05:31:38;;;;;;;2.50;1.80;;;10.90;51.00;;;;;;4888853;28;45365;-63
2023/01/22 05:34:04;;;;;;;3.15;2.20;;;11.00;51.10;;;;;;4891284;28;45822;-63
2023/01/22 05:36:30;;;;;;;3.72;2.30;;;11.00;51.10;;;;;;4904362;28;45476;-63
2023/01/22 05:38:55;;;;;;;2.75;2.00;;;10.90;51.00;;;;;;4904754;28;46532;-64
2023/01/22 05:41:21;;;;;;;2.60;1.90;;;10.90;51.00;;;;;;4888896;28;45686;-63
2023/01/22 05:43:46;;;;;;;3.10;2.33;;;10.90;51.10;;;;;;4904965;28;45361;-64
2023/01/22 05:46:12;;;;;;;2.75;1.90;;;10.90;51.00;;;;;;4889536;28;46217;-64
2023/01/22 05:48:37;;;;;;;2.65;1.70;;;10.90;51.10;;;;;;4891308;28;46319;-64
2023/01/22 05:51:03;;;;;;;3.28;2.30;;;10.90;51.10;;;;;;4889115;28;45464;-63
2023/01/22 05:53:29;;;;;;;2.75;1.90;;;10.90;51.10;;;;;;4882852;28;45576;-63
2023/01/22 05:55:58;;;;;;;2.45;1.90;;;10.90;51.10;;;;;;4888596;28;45446;-64
2023/01/22 05:58:24;;;;;;;2.58;2.05;;;10.90;51.10;;;;;;4887710;28;47014;-61
2023/01/22 06:00:51;;;;;;;3.40;2.22;;;10.90;51.10;;;;;;4902235;28;45930;-64
2023/01/22 06:03:17;;;;;;;3.42;2.10;;;10.90;51.10;;;;;;4903586;28;45352;-64
2023/01/22 06:05:42;;;;;;;3.38;2.28;;;10.90;51.10;;;;;;4904713;28;45681;-64
2023/01/22 06:08:09;;;;;;;2.83;1.83;;;10.90;51.10;;;;;;4888460;28;46645;-63
2023/01/22 06:10:35;;;;;;;3.03;1.85;;;10.90;51.10;;;;;;4904110;28;45785;-64
2023/01/22 06:13:01;;;;;;;2.70;1.85;;;10.90;51.10;;;;;;4889056;28;45816;-64
2023/01/22 06:15:26;;;;;;;2.70;1.60;;;10.90;51.10;;;;;;4904202;28;45558;-64
2023/01/22 06:17:52;;;;;;;2.58;2.15;;;10.90;51.10;;;;;;4890855;28;44957;-64
2023/01/22 06:20:17;;;;;;;2.67;1.88;;;10.90;51.10;;;;;;4903211;28;45322;-64
2023/01/22 06:22:43;;;;;;;3.83;1.98;;;10.90;51.10;;;;;;4887840;28;44775;-64
2023/01/22 06:25:08;;;;;;;2.70;1.88;;;10.90;51.10;;;;;;4890786;28;45337;-64
2023/01/22 06:27:34;;;;;;;2.47;1.70;;;10.80;51.10;;;;;;4903906;28;46442;-64
2023/01/22 06:30:00;;;;;;;2.63;1.70;;;10.80;51.10;;;;;;4873990;28;45714;-64
2023/01/22 06:32:25;;;;;;;3.65;1.92;;;10.80;51.10;;;;;;4901579;28;46306;-64
2023/01/22 06:34:51;;;;;;;3.10;1.90;;;10.90;51.10;;;;;;4904417;28;45068;-64
2023/01/22 06:37:16;;;;;;;1.58;1.48;;;10.90;51.10;;;;;;4890855;28;46233;-64
2023/01/22 06:39:42;;;;;;;3.22;2.15;;;10.90;51.10;;;;;;4888730;28;45235;-64
2023/01/22 06:42:07;;;;;;;2.90;1.83;;;10.90;51.10;;;;;;4901734;28;44746;-64
2023/01/22 06:44:33;;;;;;;2.35;1.77;;;10.90;51.10;;;;;;4904979;28;45310;-64
2023/01/22 06:46:58;;;;;;;2.47;1.90;;;10.90;51.10;;;;;;4889626;28;46166;-63
2023/01/22 06:49:24;;;;;;;3.40;2.10;;;10.80;51.00;;;;;;4905455;28;45731;-64
2023/01/22 06:51:49;;;;;;;2.20;1.70;;;10.90;51.10;;;;;;4889237;28;44760;-64
2023/01/22 06:54:15;;;;;;;3.33;2.28;;;10.90;51.10;;;;;;4889817;28;45702;-64
2023/01/22 06:56:40;;;;;;;3.00;1.90;;;10.80;51.10;;;;;;4891091;28;45700;-64
2023/01/22 06:59:06;;;;;;;2.90;1.77;;;10.80;51.10;;;;;;4905583;28;45747;-64
2023/01/22 07:01:32;;;;;;;2.63;1.75;;;10.80;51.10;;;;;;4905235;28;45229;-64
2023/01/22 07:03:58;;;;;;;2.72;2.00;;;10.80;51.10;;;;;;4890121;28;45261;-64
2023/01/22 07:06:23;;;;;;;2.08;1.88;;;10.80;51.10;;;;;;4890522;28;46773;-63
2023/01/22 07:08:49;;;;;;;2.33;1.50;;;10.80;51.10;;;;;;4907230;28;45599;-64
2023/01/22 07:11:15;;;;;;;3.22;1.88;;;10.80;51.10;;;;;;4876908;28;46257;-64
2023/01/22 07:13:41;;;;;;;2.85;1.90;;;10.80;51.10;;;;;;4891548;28;44846;-64
2023/01/22 07:16:06;;;;;;;2.80;1.95;;;10.80;51.10;;;;;;4905357;28;47377;-64
2023/01/22 07:18:32;;;;;;;3.17;1.92;;;10.80;51.10;;;;;;4884810;28;44954;-64
2023/01/22 07:21:01;;;;;;;2.92;1.90;;;10.80;51.10;;;;;;4879278;28;45497;-64
2023/01/22 07:23:27;;;;;;;2.78;1.70;;;10.80;51.30;;;;;;4904756;28;44750;-64
2023/01/22 07:25:53;;;;;;;2.78;1.70;;;10.80;51.10;;;;;;4903882;28;47322;-63
2023/01/22 07:28:18;;;;;;;2.72;1.83;;;10.80;51.10;;;;;;4888229;28;46147;-64
2023/01/22 07:30:47;;;;;;;2.67;1.70;;;10.80;51.20;;;;;;4888672;28;45701;-63
2023/01/22 07:33:13;;;;;;;2.55;1.65;;;10.80;51.10;;;;;;4902425;28;44822;-64
2023/01/22 07:35:38;;;;;;;2.38;1.73;;;10.80;51.20;;;;;;4889236;28;47002;-64
2023/01/22 07:38:04;;;;;;;2.90;1.92;;;10.80;51.10;;;;;;4885408;28;45196;-64
2023/01/22 07:40:29;;;;;;;2.30;1.60;;;10.80;51.10;;;;;;4903649;28;45853;-64
2023/01/22 07:42:55;;;;;;;2.67;1.67;;;10.80;51.10;;;;;;4881696;28;45733;-64
2023/01/22 07:45:23;;;;;;;2.50;1.75;;;10.80;51.10;;;;;;4888140;28;45698;-63
2023/01/22 07:47:58;;;;;;;3.28;2.00;;;10.80;51.10;;;;;;4903674;28;45155;-64
2023/01/22 07:50:25;;;;;;;2.03;1.60;;;10.80;51.10;;;;;;4889560;28;45396;-63
2023/01/22 07:52:51;;;;;;;2.25;1.85;;;10.80;51.10;;;;;;4885700;28;45340;-64
2023/01/22 07:55:16;;;;;;;2.30;1.80;;;10.80;51.10;;;;;;4872471;28;46176;-64
2023/01/22 07:57:42;;;;;;;1.83;1.50;;;10.80;51.10;;;;;;4890447;28;45774;-63
2023/01/22 08:00:11;;;;;;;2.70;1.77;;;10.80;51.00;;;;;;4888712;28;45867;-64
2023/01/22 08:02:37;;;;;;;2.50;1.88;;;10.80;51.10;;;;;;4886521;28;45625;-65
2023/01/22 08:05:04;;;;;;;1.85;1.48;;;10.80;51.10;;;;;;4888301;28;45944;-64
2023/01/22 08:07:29;;;;;;;3.15;1.92;;;10.80;51.00;;;;;;4886040;28;46075;-64
2023/01/22 08:09:55;;;;;;;3.10;1.95;;;10.80;51.10;;;;;;4885845;28;45618;-64
2023/01/22 08:12:21;;;;;;;2.03;1.60;;;10.80;51.10;;;;;;4889155;28;45015;-64
2023/01/22 08:14:46;;;;;;;2.35;1.85;;;10.80;51.10;;;;;;4867983;28;46083;-64
2023/01/22 08:17:12;;;;;;;1.83;1.55;;;10.80;51.10;;;;;;4884087;28;44880;-63
2023/01/22 08:19:37;;;;;;;2.08;1.52;;;10.80;51.10;;;;;;4887137;28;45458;-64
2023/01/22 08:22:03;;;;;;;1.85;1.52;;;10.80;51.10;;;;;;4884385;28;45719;-63
2023/01/22 08:24:28;;;;;;;2.88;1.80;;;10.80;51.20;;;;;;4887043;28;46934;-63
2023/01/22 08:26:55;;;;;;;2.50;1.67;;;10.80;51.10;;;;;;4889397;28;45275;-64
2023/01/22 08:29:21;;;;;;;1.92;1.60;;;10.80;51.10;;;;;;4901122;28;45737;-64
2023/01/22 08:31:46;;;;;;;2.38;1.65;;;10.80;51.20;;;;;;4898855;28;46169;-64
2023/01/22 08:34:12;;;;;;;3.33;1.55;;;10.70;51.10;;;;;;4884098;28;46983;-64
2023/01/22 08:36:37;;;;;;;2.15;1.77;;;10.70;51.10;;;;;;4887373;28;46227;-63
2023/01/22 08:39:03;;;;;;;2.00;1.48;;;10.70;51.10;;;;;;4886008;28;45672;-64
2023/01/22 08:41:28;;;;;;;1.92;1.70;;;10.80;51.20;;;;;;4879076;28;45248;-64
2023/01/22 08:43:54;;;;;;;2.28;1.70;;;10.80;51.20;;;;;;4885778;28;46272;-64
2023/01/22 08:46:20;;;;;;;2.05;1.38;;;10.80;51.10;;;;;;4886503;28;45479;-64
2023/01/22 08:48:47;;;;;;;1.55;1.35;;;10.80;51.10;;;;;;4888582;28;45862;-64
2023/01/22 08:51:13;;;;;;;2.40;1.70;;;10.80;51.20;;;;;;4897813;28;46218;-64
2023/01/22 08:53:38;;;;;;;3.13;1.60;;;10.70;51.10;;;;;;4885551;28;46067;-64
2023/01/22 08:56:04;;;;;;;2.42;1.63;;;10.70;51.20;;;;;;4898743;28;46216;-64
2023/01/22 08:58:30;;;;;;;3.67;1.90;;;10.70;51.10;;;;;;4901409;28;45718;-64
2023/01/22 09:00:55;;;;;;;3.05;1.90;;;10.70;51.10;;;;;;4884054;28;45456;-64
2023/01/22 09:03:21;;;;;;;2.92;1.70;;;10.70;51.10;;;;;;4885040;28;46130;-64
2023/01/22 09:05:47;;;;;;;1.88;1.50;;;10.70;51.10;;;;;;4885768;28;45855;-64
2023/01/22 09:08:12;;;;;;;2.50;1.70;;;10.70;51.10;;;;;;4886441;28;45113;-64
2023/01/22 09:10:38;;;;;;;2.65;2.05;;;10.70;51.20;;;;;;4895001;28;45733;-63
2023/01/22 09:13:03;;;;;;;2.22;1.40;;;10.70;51.10;;;;;;4879220;28;46359;-62
2023/01/22 09:15:29;;;;;;;2.60;1.80;;;10.70;51.10;;;;;;4882120;28;45346;-64
2023/01/22 09:17:55;;;;;;;1.85;1.60;;;10.80;51.10;;;;;;4885796;28;45708;-64
2023/01/22 09:20:20;;;;;;;2.78;1.90;;;10.80;51.10;;;;;;4885463;28;45681;-64
2023/01/22 09:22:46;;;;;;;2.92;1.60;;;10.70;51.10;;;;;;4881508;28;45476;-64
2023/01/22 09:25:12;;;;;;;3.65;1.98;;;10.70;51.10;;;;;;4897337;28;45396;-64
2023/01/22 09:27:38;;;;;;;2.00;1.55;;;10.70;51.10;;;;;;4897914;28;46541;-64
2023/01/22 09:30:04;;;;;;;2.40;1.83;;;10.70;51.10;;;;;;4881147;28;45110;-64
2023/01/22 09:32:30;;;;;;;2.35;1.67;;;10.70;51.10;;;;;;4880270;28;47532;-64
2023/01/22 09:34:55;;;;;;;3.38;1.73;;;10.70;51.10;;;;;;4881917;28;45235;-64
2023/01/22 09:37:21;;;;;;;2.08;1.60;;;10.70;51.10;;;;;;4886235;28;46075;-63
2023/01/22 09:39:50;;;;;;;2.35;1.60;;;10.70;51.10;;;;;;4884447;28;45868;-64
2023/01/22 09:42:21;;;;;;;2.33;1.80;;;10.70;51.10;;;;;;4881149;28;46026;-63
2023/01/22 09:44:49;;;;;;;2.65;1.73;;;10.70;51.10;;;;;;4883824;28;45782;-63
2023/01/22 09:47:17;;;;;;;2.00;1.60;;;10.70;51.20;;;;;;4882318;28;45862;-64
2023/01/22 09:49:56;;;;;;;2.97;1.70;;;10.70;51.20;;;;;;4893978;28;45294;-63
2023/01/22 09:52:23;;;;;;;2.95;1.70;;;10.70;51.10;;;;;;4896435;28;47101;-63
2023/01/22 09:54:49;;;;;;;2.03;1.60;;;10.70;51.10;;;;;;4883587;28;46279;-62
2023/01/22 09:57:14;;;;;;;1.73;1.50;;;10.70;51.10;;;;;;4894167;28;45744;-63
2023/01/22 09:59:49;;;;;;;2.88;1.80;;;10.70;51.10;;;;;;4897355;28;46088;-63
2023/01/22 10:02:43;;;;;;;2.38;1.52;;;10.70;51.20;;;;;;4877840;28;46209;-63
2023/01/22 10:05:31;;;;;;;1.88;1.63;;;10.70;51.20;;;;;;4890505;28;45872;-63
2023/01/22 10:08:02;;;;;;;1.80;1.23;;;10.70;51.20;;;;;;4895518;28;46627;-63
2023/01/22 10:10:28;;;;;;;2.33;1.83;;;10.70;51.20;;;;;;4880712;28;46228;-63
2023/01/22 10:13:15;;;;;;;2.15;1.60;;;10.60;51.20;;;;;;4882801;28;45457;-63
2023/01/22 10:15:40;;;;;;;3.13;2.17;;;10.70;51.30;;;;;;4875545;28;45679;-62
2023/01/22 10:18:45;;;;;;;2.33;1.60;;;10.60;51.20;;;;;;4873658;28;45723;-64
2023/01/22 10:21:25;;;;;;;1.90;1.38;;;10.60;51.30;;;;;;4893901;28;46453;-63
2023/01/22 10:23:51;;;;;;;2.00;1.55;;;10.70;51.20;;;;;;4877616;28;46875;-63
2023/01/22 10:26:17;;;;;;;3.80;1.50;;;10.60;51.20;;;;;;4878684;28;45470;-62
2023/01/22 10:28:44;;;;;;;2.17;1.73;;;10.70;51.20;;;;;;4895535;28;45495;-63
2023/01/22 10:31:38;;;;;;;2.40;1.70;;;10.60;51.10;;;;;;4881355;28;45146;-63
2023/01/22 10:34:15;;;;;;;1.63;1.38;;;10.70;51.20;;;;;;4880594;28;45479;-64
2023/01/22 10:36:47;;;;;;;1.77;1.58;;;10.60;51.20;;;;;;4897938;28;46199;-63
2023/01/22 10:39:13;;;;;;;2.25;1.70;;;10.60;51.10;;;;;;4887512;28;45514;-63
2023/01/22 10:41:40;;;;;;;2.25;1.75;;;10.60;51.10;;;;;;4874456;28;45764;-64
2023/01/22 10:44:20;;;;;;;2.00;1.63;;;10.60;51.20;;;;;;4892627;28;45330;-64
2023/01/22 10:46:48;;;;;;;1.67;1.30;;;10.60;51.20;;;;;;4902056;28;45321;-64
2023/01/22 10:49:18;;;;;;;2.00;1.50;;;10.70;51.20;;;;;;4905529;28;45885;-64
2023/01/22 10:51:48;;;;;;;3.17;1.80;;;10.60;51.10;;;;;;4906737;28;45675;-63
2023/01/22 10:54:42;;;;;;;2.17;1.42;;;10.60;51.70;;;;;;4890780;28;45296;-64
2023/01/22 10:57:30;;;;;;;2.63;1.83;;;10.60;51.20;;;;;;4886868;28;45365;-64
2023/01/22 11:00:17;;;;;;;2.03;1.52;;;10.70;51.20;;;;;;4900030;28;46997;-63
2023/01/22 11:02:46;;;;;;;2.00;1.40;;;10.60;51.20;;;;;;4885752;28;46630;-64
2023/01/22 11:05:28;;;;;;;2.15;1.55;;;10.60;51.30;;;;;;4887970;28;48050;-64
2023/01/22 11:08:05;;;;;;;2.80;1.47;;;10.60;51.20;;;;;;4884475;28;46077;-64
2023/01/22 11:10:52;;;;;;;2.28;1.30;;;10.70;51.20;;;;;;4884840;28;45002;-63
2023/01/22 11:13:37;;;;;;;1.98;1.67;;;10.60;51.20;;;;;;4884812;28;45068;-64
2023/01/22 11:16:15;;;;;;;2.33;1.77;;;10.60;51.20;;;;;;4888499;28;45363;-63
2023/01/22 11:19:02;;;;;;;2.00;1.40;;;10.60;51.20;;;;;;4875344;28;45492;-64
2023/01/22 11:21:32;;;;;;;2.15;1.42;;;10.60;51.20;;;;;;4881576;28;46222;-63
2023/01/22 11:24:02;;;;;;;2.60;1.40;;;10.60;51.10;;;;;;4885692;28;45405;-64
2023/01/22 11:26:54;;;;;;;2.13;1.30;;;10.60;51.10;;;;;;4866494;28;46694;-65
2023/01/22 11:29:20;;;;;;;2.97;1.70;;;10.60;51.10;;;;;;4883228;28;44738;-63
2023/01/22 11:32:10;;;;;;;1.35;1.25;;;10.60;51.10;;;;;;4897500;28;46119;-64
2023/01/22 11:34:54;;;;;;;2.25;1.40;;;10.70;51.20;;;;;;4877264;28;45784;-65
2023/01/22 11:37:31;;;;;;;1.92;1.63;;;10.70;51.10;;;;;;4899577;28;45291;-62
2023/01/22 11:40:18;;;;;;;2.17;1.50;;;10.70;51.10;;;;;;4885352;28;45745;-62
2023/01/22 11:43:05;;;;;;;1.60;1.30;;;10.70;51.10;;;;;;4898476;28;45378;-63
2023/01/22 11:45:55;;;;;;;1.77;1.45;;;10.70;51.20;;;;;;4898105;28;46451;-63
2023/01/22 11:48:57;;;;;;;2.47;1.30;;;10.60;51.10;;;;;;4883823;28;47709;-64
2023/01/22 11:51:31;;;;;;;2.17;1.50;;;10.60;51.10;;;;;;4895542;28;45563;-63
2023/01/22 11:54:16;;;;;;;1.67;1.38;;;10.60;51.10;;;;;;4892733;28;46578;-65
2023/01/22 11:56:47;;;;;;;2.00;1.60;;;10.70;51.10;;;;;;4885853;28;44770;-63
2023/01/22 11:59:25;;;;;;;1.70;1.50;;;10.60;51.10;;;;;;4887973;28;46243;-63
2023/01/22 12:02:07;;;;;;;2.22;1.52;;;10.70;51.10;;;;;;4879209;28;45814;-63
2023/01/22 12:05:01;;;;;;;1.67;1.53;;;10.70;51.10;;;;;;4905757;28;46269;-63
2023/01/22 12:07:31;;;;;;;2.10;1.40;;;10.60;51.10;;;;;;4891593;28;45693;-64
2023/01/22 12:10:09;;;;;;;2.38;1.50;;;10.60;51.20;;;;;;4905261;28;46226;-63
2023/01/22 12:12:49;;;;;;;1.50;1.35;;;10.60;51.20;;;;;;4905902;28;45064;-63
2023/01/22 12:15:36;;;;;;;2.42;1.77;;;10.60;51.10;;;;;;4870080;28;45307;-63
2023/01/22 12:18:01;;;;;;;1.75;1.30;;;10.70;51.10;;;;;;4882328;28;46206;-64
2023/01/22 12:20:48;;;;;;;1.98;1.63;;;10.70;51.10;;;;;;4886142;28;46435;-63
2023/01/22 12:23:27;;;;;;;1.70;1.30;;;10.70;51.10;;;;;;4891227;28;45755;-64
2023/01/22 12:25:58;;;;;;;1.65;1.38;;;10.60;51.10;;;;;;4906803;28;46139;-62
2023/01/22 12:28:41;;;;;;;1.63;1.38;;;10.60;51.10;;;;;;4887729;28;45437;-63
2023/01/22 12:31:34;;;;;;;2.10;1.30;;;10.70;51.80;;;;;;4886288;28;45755;-63
2023/01/22 12:34:02;;;;;;;1.43;1.30;;;10.60;51.20;;;;;;4888853;28;45790;-63
2023/01/22 12:36:27;;;;;;;1.85;1.40;;;10.60;51.10;;;;;;4882966;28;46190;-62
2023/01/22 12:39:02;;;;;;;1.88;1.30;;;10.60;51.20;;;;;;4891903;28;44725;-64
2023/01/22 12:42:02;;;;;;;1.73;1.40;;;10.60;51.20;;;;;;4859052;28;47030;-64
2023/01/22 12:44:48;;;;;;;2.45;1.65;;;10.60;51.10;;;;;;4896769;28;45503;-64
2023/01/22 12:47:45;;;;;;;1.75;1.30;;;10.60;51.10;;;;;;4883059;28;45241;-64
2023/01/22 12:50:21;;;;;;;1.80;1.35;;;10.60;51.10;;;;;;4892936;28;45198;-64
2023/01/22 12:53:00;;;;;;;1.83;1.35;;;10.60;51.20;;;;;;4895188;28;45454;-63
2023/01/22 12:55:33;;;;;;;1.65;1.38;;;10.60;51.40;;;;;;4892675;28;46275;-65
2023/01/22 12:57:59;;;;;;;1.67;1.27;;;10.60;51.20;;;;;;4894837;28;46003;-64
2023/01/22 13:00:34;;;;;;;2.22;1.48;;;10.60;51.20;;;;;;4891870;28;45959;-64
2023/01/22 13:03:01;;;;;;;1.33;1.23;;;10.60;51.20;;;;;;4910470;28;47140;-64
2023/01/22 13:05:29;;;;;;;2.38;1.52;;;10.60;51.20;;;;;;4900730;28;45309;-64
2023/01/22 13:08:15;;;;;;;2.25;1.48;;;10.60;51.20;;;;;;4897671;28;45672;-64
2023/01/22 13:10:50;;;;;;;2.22;1.55;;;10.60;51.20;;;;;;4888223;28;45363;-64
2023/01/22 13:13:29;;;;;;;2.72;1.42;;;10.60;51.20;;;;;;4891490;28;46023;-63
2023/01/22 13:16:06;;;;;;;2.40;1.35;;;10.60;51.20;;;;;;4883146;28;45106;-64
2023/01/22 13:18:40;;;;;;;2.55;1.52;;;10.60;51.10;;;;;;4883442;28;45229;-64
2023/01/22 13:21:10;;;;;;;1.98;1.40;;;10.60;51.20;;;;;;4868454;28;45744;-64
2023/01/22 13:23:43;;;;;;;1.77;1.30;;;10.60;51.10;;;;;;4883063;28;45110;-64
2023/01/22 13:26:24;;;;;;;1.40;1.30;;;10.60;51.20;;;;;;4898087;28;46166;-65
2023/01/22 13:28:57;;;;;;;1.75;1.27;;;10.60;51.20;;;;;;4864694;28;45582;-64
2023/01/22 13:31:23;;;;;;;1.58;1.40;;;10.60;51.20;;;;;;4862885;28;46181;-63
2023/01/22 13:34:09;;;;;;;1.50;1.10;;;10.60;51.20;;;;;;4896724;28;45727;-65
2023/01/22 13:36:38;;;;;;;1.98;1.50;;;10.60;51.20;;;;;;4895560;28;45571;-64
2023/01/22 13:39:04;;;;;;;1.95;1.33;;;10.60;51.20;;;;;;4882897;28;46419;-64
2023/01/22 13:41:36;;;;;;;1.65;1.30;;;10.60;51.20;;;;;;4879100;28;44897;-64
2023/01/22 13:44:05;;;;;;;1.77;1.50;;;10.60;51.20;;;;;;4893491;28;45642;-63
2023/01/22 13:46:31;;;;;;;2.78;1.58;;;10.60;51.20;;;;;;4882435;28;45542;-63
2023/01/22 13:49:01;;;;;;;1.77;1.30;;;10.60;51.20;;;;;;4896675;28;45597;-63
2023/01/22 13:51:27;;;;;;;1.90;1.20;;;10.60;51.20;;;;;;4894646;28;45267;-64
2023/01/22 13:53:52;;;;;;;2.50;1.70;;;10.60;51.20;;;;;;4896119;28;45606;-64
2023/01/22 13:56:19;;;;;;;2.05;1.40;;;10.60;51.20;;;;;;4892810;28;45316;-63
2023/01/22 13:58:45;;;;;;;1.48;1.20;;;10.60;51.10;;;;;;4896993;28;45537;-63
2023/01/22 14:01:11;;;;;;;1.73;1.20;;;10.60;51.10;;;;;;4893747;28;45642;-65
2023/01/22 14:03:37;;;;;;;1.90;1.58;;;10.60;51.20;;;;;;4877375;28;47015;-64
2023/01/22 14:06:05;;;;;;;2.10;1.45;;;10.60;51.10;;;;;;4890336;28;45614;-64
2023/01/22 14:08:30;;;;;;;1.38;1.23;;;10.60;51.20;;;;;;4894263;28;45333;-64
2023/01/22 14:10:57;;;;;;;2.53;1.83;;;10.60;51.10;;;;;;4894703;28;45416;-64
2023/01/22 14:13:22;;;;;;;1.95;1.42;;;10.60;51.20;;;;;;4897868;28;45619;-63
2023/01/22 14:15:57;;;;;;;2.40;1.35;;;10.60;51.20;;;;;;4895514;28;45335;-64
2023/01/22 14:18:23;;;;;;;2.40;1.40;;;10.60;51.10;;;;;;4896359;28;45361;-64
2023/01/22 14:20:48;;;;;;;1.52;1.20;;;10.60;51.10;;;;;;4897181;28;45263;-64
2023/01/22 14:23:14;;;;;;;1.52;1.20;;;10.60;51.10;;;;;;4898110;28;46179;-63
2023/01/22 14:25:43;;;;;;;1.67;1.50;;;10.60;51.10;;;;;;4892798;28;45096;-64
2023/01/22 14:28:08;;;;;;;2.88;1.55;;;10.60;51.10;;;;;;4878033;28;45233;-64
2023/01/22 14:30:34;;;;;;;2.25;1.40;;;10.60;51.10;;;;;;4912376;28;45724;-64
2023/01/22 14:32:59;;;;;;;2.25;1.50;;;10.60;51.20;;;;;;4895151;28;45336;-64
2023/01/22 14:35:25;;;;;;;1.65;1.40;;;10.60;51.20;;;;;;4895979;28;45725;-63
2023/01/22 14:37:51;;;;;;;2.05;1.38;;;10.60;51.20;;;;;;4877228;28;45292;-64
2023/01/22 14:40:18;;;;;;;1.63;1.35;;;10.60;51.10;;;;;;4907732;28;45907;-64
2023/01/22 14:42:45;;;;;;;1.67;1.23;;;10.70;51.20;;;;;;4877991;28;46041;-64
2023/01/22 14:45:11;;;;;;;2.13;1.52;;;10.60;51.10;;;;;;4911553;28;45502;-64
2023/01/22 14:47:37;;;;;;;2.05;1.25;;;10.60;51.10;;;;;;4876762;28;45295;-64
2023/01/22 14:50:03;;;;;;;2.40;1.63;;;10.60;51.10;;;;;;4897021;28;45473;-63
2023/01/22 14:52:28;;;;;;;2.58;1.75;;;10.60;51.00;;;;;;4893806;28;46276;-64
2023/01/22 14:54:54;;;;;;;2.58;1.50;;;10.60;51.00;;;;;;4891591;28;45531;-63
2023/01/22 14:57:21;;;;;;;2.25;1.10;;;10.60;51.00;;;;;;4894736;28;45513;-64
2023/01/22 14:59:46;;;;;;;2.08;1.40;;;10.60;51.10;;;;;;4896145;28;44989;-63
2023/01/22 15:02:12;;;;;;;1.42;1.30;;;10.60;51.00;;;;;;4893905;28;45609;-65
2023/01/22 15:04:41;;;;;;;1.92;1.33;;;10.60;51.00;;;;;;4878883;28;45368;-64
2023/01/22 15:07:06;;;;;;;1.88;1.40;;;10.60;51.10;;;;;;4891489;28;45675;-64
2023/01/22 15:09:32;;;;;;;2.67;1.20;;;10.60;51.10;;;;;;4893619;28;45791;-64
2023/01/22 15:11:57;;;;;;;2.08;1.40;;;10.60;51.20;;;;;;4897089;28;45332;-63
2023/01/22 15:14:23;;;;;;;1.40;1.10;;;10.60;51.10;;;;;;4879207;28;45282;-63
2023/01/22 15:16:48;;;;;;;2.10;1.30;;;10.60;51.20;;;;;;4895130;28;45556;-64
2023/01/22 15:19:14;;;;;;;2.10;1.50;;;10.60;51.10;;;;;;4912260;28;45253;-63
2023/01/22 15:21:40;;;;;;;2.25;1.30;;;10.60;51.20;;;;;;4895883;28;45406;-64
2023/01/22 15:24:06;;;;;;;1.92;1.38;;;10.60;51.20;;;;;;4897258;28;45296;-63
2023/01/22 15:26:34;;;;;;;1.40;1.13;;;10.60;51.10;;;;;;4897899;28;45248;-64
2023/01/22 15:28:59;;;;;;;1.73;1.35;;;10.60;51.10;;;;;;4902180;28;45337;-64
2023/01/22 15:31:25;;;;;;;1.80;1.52;;;10.60;51.10;;;;;;4893838;28;47433;-65
2023/01/22 15:33:51;;;;;;;2.33;1.30;;;10.60;51.10;;;;;;4895595;28;44917;-64
2023/01/22 15:36:16;;;;;;;1.92;1.50;;;10.60;51.10;;;;;;4913668;28;45403;-64
2023/01/22 15:38:42;;;;;;;1.88;1.10;;;10.60;51.10;;;;;;4901733;28;45233;-63
2023/01/22 15:41:29;;;;;;;2.00;1.40;;;10.60;51.20;;;;;;4898704;28;46961;-64
2023/01/22 15:43:59;;;;;;;2.08;1.48;;;10.60;51.20;;;;;;4896534;28;46344;-64
2023/01/22 15:46:29;;;;;;;2.42;1.70;;;10.60;51.20;;;;;;4893386;28;45733;-65
2023/01/22 15:48:55;;;;;;;1.55;1.23;;;10.60;51.20;;;;;;4894101;28;45276;-64
2023/01/22 15:51:21;;;;;;;1.58;1.20;;;10.60;51.20;;;;;;4895379;28;46046;-64
2023/01/22 15:53:55;;;;;;;2.15;1.42;;;10.50;51.20;;;;;;4887524;28;45121;-65
2023/01/22 15:56:21;;;;;;;1.98;1.30;;;10.60;51.20;;;;;;4895806;28;45243;-64
2023/01/22 15:58:49;;;;;;;1.88;1.25;;;10.50;51.20;;;;;;4892906;28;45577;-65
2023/01/22 16:01:15;;;;;;;2.25;1.50;;;10.60;51.20;;;;;;4898108;28;45366;-67
2023/01/22 16:03:40;;;;;;;1.77;1.23;;;10.50;51.20;;;;;;4892264;28;45463;-64
2023/01/22 16:06:14;;;;;;;1.50;1.10;;;10.50;51.20;;;;;;4891554;28;45308;-64
2023/01/22 16:08:40;;;;;;;2.42;1.45;;;10.50;51.20;;;;;;4895808;28;45004;-65
2023/01/22 16:11:06;;;;;;;1.88;1.48;;;10.50;51.20;;;;;;4890502;28;45308;-64
2023/01/22 16:13:31;;;;;;;1.17;0.93;;;10.50;51.20;;;;;;4893016;28;45567;-64
2023/01/22 16:15:58;;;;;;;1.60;1.13;;;10.50;51.20;;;;;;4899905;28;45233;-63
2023/01/22 16:18:24;;;;;;;1.77;1.40;;;10.50;51.30;;;;;;4876117;28;45548;-64
2023/01/22 16:20:49;;;;;;;1.42;1.25;;;10.50;51.20;;;;;;4909784;28;46001;-64
2023/01/22 16:23:15;;;;;;;1.63;1.40;;;10.50;51.30;;;;;;4894426;28;45698;-64
2023/01/22 16:25:40;;;;;;;2.28;1.38;;;10.50;51.30;;;;;;4900820;28;45075;-64
2023/01/22 16:28:06;;;;;;;2.58;1.50;;;10.50;51.30;;;;;;4895552;28;45948;-65
2023/01/22 16:30:32;;;;;;;2.13;1.40;;;10.50;51.30;;;;;;4892768;28;45314;-64
2023/01/22 16:32:57;;;;;;;1.63;1.27;;;10.50;51.30;;;;;;4882835;28;45650;-65
2023/01/22 16:35:23;;;;;;;1.58;1.40;;;10.50;51.20;;;;;;4909305;28;47918;-64
2023/01/22 16:37:48;;;;;;;1.95;1.33;;;10.50;51.20;;;;;;4893831;28;45641;-64
2023/01/22 16:40:14;;;;;;;3.53;1.23;;;10.50;51.20;;;;;;4875921;28;45955;-65
2023/01/22 16:42:42;;;;;;;1.77;1.38;;;10.50;51.20;;;;;;4905466;28;46188;-64
2023/01/22 16:45:08;;;;;;;2.30;1.55;;;10.50;51.30;;;;;;4883695;28;45207;-64
2023/01/22 16:47:34;;;;;;;1.67;1.20;;;10.50;51.20;;;;;;4898726;28;45293;-65
2023/01/22 16:49:59;;;;;;;1.70;1.30;;;10.50;51.80;;;;;;4888574;28;45104;-65
2023/01/22 16:52:25;;;;;;;2.72;1.45;;;10.50;51.30;;;;;;4901234;28;45844;-64
2023/01/22 16:54:50;;;;;;;2.30;1.52;;;10.50;51.30;;;;;;4902232;28;45344;-64
2023/01/22 16:57:18;;;;;;;4.72;1.58;;;10.50;51.30;;;;;;4916520;28;44768;-65
2023/01/22 16:59:43;;;;;;;1.58;1.20;;;10.50;51.30;;;;;;4906265;28;46313;-64